Geneva, Indiana
Current Conditions -  °F | °C
As of 3:54 AM on Wednesday 22 Oct 2014 (Local Time) from KFWA Reporting Station
Few Clouds Few Clouds  
Wind Chill: 32°   Ceiling: Unl
Heat Index: 37°   Visibility: 10mi
Dew Point: 34°   Wind: 6mph
Humidity: 89%   Direction: 350°N
Pressure: 30.25"   Gusts: NA
Location:  40.59°N, 84.96°W
Report Text: KFWA 220754Z 35005KT 10SM FEW020 FEW050 03/01 A3025 RMK AO2 SLP246 T00280011
Loading
Personal Weather Stations






























Interactive Weather Map
Tropical Storm Tracking
New forecast layout! Learn more

10-Day Weather Forecast

Advertisements
Track Severe Weather on mobile